| time (UTC) | temp F | wind direction | speed knots | gust knots | rain 1hr in | rain 24hr in | rain mn in | humidity % | barometer mb |
| 20260502223523 | 66 | 228 | 0.9 | 0.9 | 0.00 | 0.00 | 0.00 | 34 | 1011.1 |
| 20260502223021 | 66 | 160 | 0.0 | 0.0 | 0.00 | 0.00 | 0.00 | 34 | 1011.1 |
| 20260502222518 | 66 | 160 | 0.9 | 1.7 | 0.00 | 0.00 | 0.00 | 36 | 1010.9 |
| 20260502222014 | 66 | 202 | 0.9 | 1.7 | 0.00 | 0.00 | 0.00 | 35 | 1011.0 |
| 20260502221510 | 65 | 182 | 1.7 | 2.6 | 0.00 | 0.00 | 0.00 | 34 | 1010.9 |
| 20260502221008 | 65 | 305 | 2.6 | 4.3 | 0.00 | 0.00 | 0.00 | 34 | 1011.1 |
| 20260502220503 | 65 | 217 | 0.9 | 0.9 | 0.00 | 0.00 | 0.00 | 34 | 1011.3 |
| 20260502215959 | 65 | 194 | 3.5 | 4.3 | 0.00 | 0.00 | 0.00 | 33 | 1011.5 |
| 20260502215457 | 66 | 150 | 0.0 | 0.9 | 0.00 | 0.00 | 0.00 | 34 | 1011.4 |
| 20260502214954 | 66 | 252 | 2.6 | 2.6 | 0.00 | 0.00 | 0.00 | 34 | 1011.4 |
| 20260502214451 | 66 | 281 | 3.5 | 5.2 | 0.00 | 0.00 | 0.00 | 33 | 1011.6 |
| 20260502213948 | 67 | 174 | 0.9 | 0.9 | 0.00 | 0.00 | 0.00 | 35 | 1011.5 |
| 20260502213444 | 66 | 290 | 0.0 | 0.9 | 0.00 | 0.00 | 0.00 | 35 | 1011.8 |
| 20260502212943 | 67 | 326 | 0.9 | 2.6 | 0.00 | 0.00 | 0.00 | 34 | 1011.7 |
| 20260502212441 | 67 | 341 | 2.6 | 6.1 | 0.00 | 0.00 | 0.00 | 32 | 1011.7 |
| 20260502211938 | 68 | 178 | 3.5 | 4.3 | 0.00 | 0.00 | 0.00 | 32 | 1011.9 |
| 20260502211434 | 68 | 265 | 3.5 | 4.3 | 0.00 | 0.00 | 0.00 | 32 | 1012.0 |
| 20260502210932 | 69 | 258 | 3.5 | 5.2 | 0.00 | 0.00 | 0.00 | 30 | 1012.1 |
| 20260502210428 | 68 | 162 | 0.0 | 0.9 | 0.00 | 0.00 | 0.00 | 34 | 1012.1 |
| 20260502205926 | 67 | 157 | 2.6 | 4.3 | 0.00 | 0.00 | 0.00 | 33 | 1012.3 |
| 20260502205421 | 67 | 133 | 1.7 | 2.6 | 0.00 | 0.00 | 0.00 | 32 | 1012.3 |
| 20260502204919 | 67 | 145 | 0.0 | 0.9 | 0.00 | 0.00 | 0.00 | 33 | 1012.5 |
| 20260502204416 | 68 | 95 | 1.7 | 4.3 | 0.00 | 0.00 | 0.00 | 31 | 1012.7 |
| 20260502203914 | 67 | 76 | 1.7 | 1.7 | 0.00 | 0.00 | 0.00 | 32 | 1012.7 |
| 20260502203411 | 67 | 107 | 2.6 | 4.3 | 0.00 | 0.00 | 0.00 | 32 | 1013.0 |
| 20260502202906 | 66 | 325 | 0.9 | 4.3 | 0.00 | 0.00 | 0.00 | 34 | 1012.9 |
| 20260502202404 | 66 | 178 | 1.7 | 1.7 | 0.00 | 0.00 | 0.00 | 32 | 1013.0 |
| 20260502201902 | 66 | 219 | 0.0 | 0.9 | 0.00 | 0.00 | 0.00 | 33 | 1013.2 |
| 20260502201357 | 66 | 178 | 2.6 | 4.3 | 0.00 | 0.00 | 0.00 | 35 | 1013.1 |
| 20260502200855 | 66 | 170 | 4.3 | 6.1 | 0.00 | 0.00 | 0.00 | 34 | 1013.3 |
| 20260502200350 | 65 | 186 | 2.6 | 2.6 | 0.00 | 0.00 | 0.00 | 33 | 1013.5 |
| 20260502195848 | 64 | 171 | 2.6 | 4.3 | 0.00 | 0.00 | 0.00 | 34 | 1013.4 |
| 20260502195344 | 65 | 173 | 1.7 | 2.6 | 0.00 | 0.00 | 0.00 | 35 | 1013.8 |
| 20260502194841 | 65 | 328 | 1.7 | 2.6 | 0.00 | 0.00 | 0.00 | 34 | 1013.6 |
| 20260502194338 | 64 | 157 | 0.9 | 0.9 | 0.00 | 0.00 | 0.00 | 35 | 1013.8 |
| 20260502193834 | 64 | 170 | 2.6 | 4.3 | 0.00 | 0.00 | 0.00 | 34 | 1013.9 |
| 20260502193331 | 63 | 167 | 2.6 | 4.3 | 0.00 | 0.00 | 0.00 | 34 | 1014.0 |
| 20260502192827 | 64 | 191 | 2.6 | 7.0 | 0.00 | 0.00 | 0.00 | 34 | 1014.2 |
| 20260502192324 | 64 | 211 | 1.7 | 2.6 | 0.00 | 0.00 | 0.00 | 32 | 1014.2 |
| 20260502191821 | 63 | 247 | 3.5 | 4.3 | 0.00 | 0.00 | 0.00 | 33 | 1014.4 |
| 20260502191319 | 64 | 245 | 2.6 | 2.6 | 0.00 | 0.00 | 0.00 | 35 | 1014.5 |
| 20260502190816 | 62 | 188 | 0.9 | 0.9 | 0.00 | 0.00 | 0.00 | 34 | 1014.6 |
| 20260502190313 | 60 | 158 | 4.3 | 6.1 | 0.00 | 0.00 | 0.00 | 36 | 1014.7 |
| 20260502185809 | 61 | 210 | 4.3 | 6.1 | 0.00 | 0.00 | 0.00 | 34 | 1014.8 |
| 20260502185305 | 62 | 308 | 1.7 | 1.7 | 0.00 | 0.00 | 0.00 | 34 | 1014.8 |
| 20260502184802 | 61 | 160 | 1.7 | 2.6 | 0.00 | 0.00 | 0.00 | 36 | 1014.9 |
| 20260502184257 | 63 | 207 | 0.9 | 0.9 | 0.00 | 0.00 | 0.00 | 34 | 1015.3 |
| 20260502183754 | 62 | 192 | 2.6 | 4.3 | 0.00 | 0.00 | 0.00 | 35 | 1014.8 |
| 20260502183250 | 60 | 200 | 2.6 | 4.3 | 0.00 | 0.00 | 0.00 | 34 | 1015.3 |
| 20260502182746 | 61 | 278 | 4.3 | 6.1 | 0.00 | 0.00 | 0.00 | 34 | 1015.3 |
| 20260502182241 | 62 | 220 | 2.6 | 2.6 | 0.00 | 0.00 | 0.00 | 37 | 1015.4 |
| 20260502181738 | 61 | 200 | 4.3 | 6.1 | 0.00 | 0.00 | 0.00 | 34 | 1015.6 |
| 20260502181237 | 61 | 317 | 2.6 | 2.6 | 0.00 | 0.00 | 0.00 | 35 | 1015.8 |
| 20260502180734 | 61 | 198 | 0.9 | 1.7 | 0.00 | 0.00 | 0.00 | 34 | 1015.6 |
| 20260502180232 | 61 | 279 | 3.5 | 5.2 | 0.00 | 0.00 | 0.00 | 34 | 1015.7 |
| 20260502170156 | 58 | 176 | 5.2 | 7.8 | 0.00 | 0.00 | 0.00 | 37 | 1016.8 |
| 20260502164142 | 57 | 143 | 2.6 | 4.3 | 0.00 | 0.00 | 0.00 | 43 | 1017.1 |
| 20260502163638 | 56 | 158 | 2.6 | 4.3 | 0.00 | 0.00 | 0.00 | 39 | 1017.0 |
| 20260502163135 | 57 | 236 | 1.7 | 2.6 | 0.00 | 0.00 | 0.00 | 38 | 1017.1 |
| 20260502162632 | 57 | 196 | 3.5 | 4.3 | 0.00 | 0.00 | 0.00 | 37 | 1017.3 |
| 20260502162129 | 56 | 349 | 3.5 | 6.1 | 0.00 | 0.00 | 0.00 | 40 | 1017.2 |
| 20260502161626 | 56 | 152 | 0.9 | 1.7 | 0.00 | 0.00 | 0.00 | 41 | 1017.5 |
| 20260502161123 | 56 | 200 | 2.6 | 4.3 | 0.00 | 0.00 | 0.00 | 41 | 1017.3 |
| 20260502160621 | 56 | 212 | 5.2 | 7.8 | 0.00 | 0.00 | 0.00 | 39 | 1017.3 |
| 20260502160120 | 56 | 208 | 4.3 | 6.1 | 0.00 | 0.00 | 0.00 | 38 | 1017.4 |
| 20260502152034 | 55 | 95 | 0.9 | 1.7 | 0.00 | 0.00 | 0.00 | 41 | 1017.8 |
| 20260502151531 | 55 | 64 | 1.7 | 4.3 | 0.00 | 0.00 | 0.00 | 41 | 1017.8 |
| 20260502151028 | 54 | 261 | 2.6 | 2.6 | 0.00 | 0.00 | 0.00 | 42 | 1017.8 |
| 20260502150526 | 55 | 291 | 1.7 | 2.6 | 0.00 | 0.00 | 0.00 | 43 | 1017.9 |
| 20260502130410 | 47 | 293 | 0.9 | 1.7 | 0.00 | 0.00 | 0.00 | 54 | 1018.5 |
| 20260502123353 | 45 | 212 | 0.0 | 0.9 | 0.00 | 0.00 | 0.00 | 58 | 1018.5 |
| 20260502122850 | 44 | 297 | 2.6 | 2.6 | 0.00 | 0.00 | 0.00 | 58 | 1018.5 |
| 20260502122345 | 44 | 336 | 0.9 | 0.9 | 0.00 | 0.00 | 0.00 | 59 | 1018.3 |
| 20260502121844 | 44 | 14 | 0.9 | 0.9 | 0.00 | 0.00 | 0.00 | 60 | 1018.1 |
| 20260502121341 | 43 | 271 | 0.9 | 0.9 | 0.00 | 0.00 | 0.00 | 60 | 1018.4 |
| 20260502120839 | 43 | 179 | 0.9 | 0.9 | 0.00 | 0.00 | 0.00 | 61 | 1018.4 |
| 20260502120335 | 42 | 291 | 0.9 | 0.9 | 0.00 | 0.00 | 0.00 | 62 | 1018.4 |
| 20260502115832 | 42 | 309 | 1.7 | 1.7 | 0.00 | 0.00 | 0.00 | 62 | 1018.0 |
| 20260502115329 | 42 | 347 | 0.9 | 0.9 | 0.00 | 0.00 | 0.00 | 63 | 1018.4 |
| 20260502114826 | 41 | 299 | 0.9 | 0.9 | 0.00 | 0.00 | 0.00 | 64 | 1018.3 |
| 20260502114323 | 41 | 283 | 1.7 | 1.7 | 0.00 | 0.00 | 0.00 | 64 | 1018.4 |
| 20260502113820 | 41 | 272 | 0.0 | 0.9 | 0.00 | 0.00 | 0.00 | 64 | 1018.4 |
| 20260502113317 | 41 | 307 | 1.7 | 1.7 | 0.00 | 0.00 | 0.00 | 64 | 1018.1 |
| 20260502112816 | 41 | 204 | 0.0 | 0.0 | 0.00 | 0.00 | 0.00 | 64 | 1018.3 |
| 20260502112313 | 40 | 295 | 0.9 | 1.7 | 0.00 | 0.00 | 0.00 | 65 | 1018.4 |
| 20260502111810 | 40 | 301 | 1.7 | 1.7 | 0.00 | 0.00 | 0.00 | 65 | 1018.2 |
| 20260502111307 | 41 | 236 | 0.0 | 0.0 | 0.00 | 0.00 | 0.00 | 64 | 1018.1 |
| 20260502110805 | 41 | 298 | 0.9 | 0.9 | 0.00 | 0.00 | 0.00 | 63 | 1018.1 |
| 20260502110302 | 41 | 253 | 0.9 | 0.9 | 0.00 | 0.00 | 0.00 | 63 | 1018.3 |
| 20260502105800 | 41 | 273 | 0.9 | 0.9 | 0.00 | 0.00 | 0.00 | 62 | 1018.1 |
| 20260502105256 | 41 | 178 | 0.0 | 0.0 | 0.00 | 0.00 | 0.00 | 62 | 1018.0 |
| 20260502104754 | 41 | 212 | 0.0 | 0.9 | 0.00 | 0.00 | 0.00 | 62 | 1017.9 |
| 20260502104251 | 41 | 189 | 0.0 | 0.9 | 0.00 | 0.00 | 0.00 | 62 | 1018.2 |
| 20260502103749 | 41 | 218 | 0.0 | 0.0 | 0.00 | 0.00 | 0.00 | 63 | 1018.0 |
| 20260502103246 | 41 | 255 | 1.7 | 1.7 | 0.00 | 0.00 | 0.00 | 62 | 1018.1 |
| 20260502102743 | 41 | 172 | 0.0 | 0.0 | 0.00 | 0.00 | 0.00 | 62 | 1018.2 |
| 20260502102239 | 41 | 197 | 0.9 | 0.9 | 0.00 | 0.00 | 0.00 | 62 | 1017.9 |
| 20260502101738 | 41 | 171 | 0.0 | 0.0 | 0.00 | 0.00 | 0.00 | 62 | 1018.1 |
| 20260502101235 | 41 | 182 | 0.0 | 0.0 | 0.00 | 0.00 | 0.00 | 61 | 1017.9 |
| 20260502100733 | 42 | 191 | 0.0 | 0.0 | 0.00 | 0.00 | 0.00 | 61 | 1018.1 |
| 20260502100232 | 42 | 188 | 0.0 | 0.0 | 0.00 | 0.00 | 0.00 | 61 | 1018.1 |
| 20260502091206 | 42 | 196 | 0.0 | 0.9 | 0.00 | 0.00 | 0.00 | 59 | 1017.9 |
| 20260502090703 | 42 | 210 | 0.0 | 0.0 | 0.00 | 0.00 | 0.00 | 59 | 1017.9 |
| 20260502090200 | 42 | 181 | 0.0 | 0.0 | 0.00 | 0.00 | 0.00 | 58 | 1017.7 |
| 20260502071055 | 43 | 298 | 0.9 | 1.7 | 0.00 | 0.00 | 0.00 | 53 | 1018.2 |
| 20260502070553 | 43 | 49 | 0.9 | 0.9 | 0.00 | 0.00 | 0.00 | 53 | 1018.3 |
| 20260502070051 | 44 | 250 | 0.0 | 0.0 | 0.00 | 0.00 | 0.00 | 53 | 1018.2 |
| 20260502065549 | 44 | 292 | 0.9 | 0.9 | 0.00 | 0.00 | 0.00 | 52 | 1018.4 |
| 20260502065047 | 44 | 264 | 0.9 | 0.9 | 0.00 | 0.00 | 0.00 | 52 | 1018.5 |
| 20260502064545 | 44 | 306 | 0.9 | 1.7 | 0.00 | 0.00 | 0.00 | 52 | 1018.5 |
| 20260502064042 | 44 | 163 | 0.0 | 0.0 | 0.00 | 0.00 | 0.00 | 51 | 1018.3 |
| 20260502063540 | 44 | 193 | 0.0 | 0.0 | 0.00 | 0.00 | 0.00 | 51 | 1018.3 |
| 20260502063037 | 44 | 179 | 0.0 | 0.9 | 0.00 | 0.00 | 0.00 | 51 | 1018.3 |
| 20260502062534 | 44 | 265 | 0.9 | 1.7 | 0.00 | 0.00 | 0.00 | 51 | 1018.4 |
| 20260502062032 | 44 | 188 | 0.0 | 0.0 | 0.00 | 0.00 | 0.00 | 51 | 1018.3 |
| 20260502061530 | 44 | 257 | 0.0 | 0.9 | 0.00 | 0.00 | 0.00 | 51 | 1018.6 |
| 20260502061027 | 44 | 232 | 0.0 | 0.9 | 0.00 | 0.00 | 0.00 | 51 | 1018.3 |
| 20260502060522 | 44 | 254 | 0.0 | 0.0 | 0.00 | 0.00 | 0.00 | 51 | 1018.4 |
| 20260502060019 | 45 | 266 | 1.7 | 2.6 | 0.00 | 0.00 | 0.00 | 51 | 1018.2 |
| 20260502055516 | 45 | 179 | 0.9 | 1.7 | 0.00 | 0.00 | 0.00 | 51 | 1018.3 |
| 20260502055015 | 45 | 176 | 0.0 | 0.0 | 0.00 | 0.00 | 0.00 | 51 | 1018.3 |
| 20260502054513 | 45 | 210 | 0.0 | 0.0 | 0.00 | 0.00 | 0.00 | 52 | 1018.5 |
| 20260502054010 | 45 | 198 | 0.0 | 0.0 | 0.00 | 0.00 | 0.00 | 52 | 1018.4 |
| 20260502053507 | 45 | 211 | 0.0 | 0.9 | 0.00 | 0.00 | 0.00 | 52 | 1018.6 |
| 20260502053005 | 45 | 232 | 0.9 | 0.9 | 0.00 | 0.00 | 0.00 | 53 | 1018.5 |
| 20260502052503 | 45 | 247 | 0.0 | 0.9 | 0.00 | 0.00 | 0.00 | 53 | 1018.5 |
| 20260502052001 | 45 | 167 | 0.0 | 0.0 | 0.00 | 0.00 | 0.00 | 53 | 1018.6 |
| 20260502051459 | 45 | 167 | 0.0 | 0.0 | 0.00 | 0.00 | 0.00 | 54 | 1018.6 |
| 20260502050955 | 45 | 173 | 0.0 | 0.0 | 0.00 | 0.00 | 0.00 | 53 | 1018.5 |
| 20260502050452 | 44 | 185 | 0.0 | 0.0 | 0.00 | 0.00 | 0.00 | 52 | 1018.3 |
| 20260502045949 | 44 | 193 | 0.0 | 0.0 | 0.00 | 0.00 | 0.00 | 53 | 1018.1 |
| 20260502045446 | 44 | 168 | 0.0 | 0.0 | 0.00 | 0.00 | 0.00 | 52 | 1018.5 |
| 20260502044943 | 44 | 176 | 0.0 | 0.9 | 0.00 | 0.00 | 0.00 | 53 | 1018.4 |
| 20260502044438 | 43 | 179 | 0.0 | 0.9 | 0.00 | 0.00 | 0.00 | 54 | 1018.5 |
| 20260502043936 | 44 | 163 | 0.0 | 0.0 | 0.00 | 0.00 | 0.00 | 54 | 1018.5 |
| 20260502043434 | 44 | 163 | 0.0 | 0.0 | 0.00 | 0.00 | 0.00 | 53 | 1018.3 |
| 20260502042933 | 44 | 163 | 0.0 | 0.0 | 0.00 | 0.00 | 0.00 | 51 | 1018.3 |
| 20260502042430 | 45 | 163 | 0.0 | 0.0 | 0.00 | 0.00 | 0.00 | 50 | 1018.4 |
| 20260502041927 | 45 | 207 | 0.9 | 0.9 | 0.00 | 0.00 | 0.00 | 50 | 1018.4 |
| 20260502041425 | 44 | 192 | 0.0 | 0.0 | 0.00 | 0.00 | 0.00 | 50 | 1018.4 |
| 20260502040922 | 45 | 166 | 0.0 | 0.0 | 0.00 | 0.00 | 0.00 | 50 | 1018.4 |
| 20260502040418 | 45 | 162 | 0.0 | 0.0 | 0.00 | 0.00 | 0.00 | 49 | 1018.3 |
| 20260502035915 | 45 | 168 | 0.0 | 0.0 | 0.00 | 0.00 | 0.00 | 48 | 1018.5 |
| 20260502035411 | 45 | 176 | 0.0 | 0.0 | 0.00 | 0.00 | 0.00 | 49 | 1018.4 |
| 20260502034909 | 45 | 160 | 0.0 | 0.0 | 0.00 | 0.00 | 0.00 | 49 | 1018.4 |
| 20260502034408 | 45 | 170 | 0.0 | 0.0 | 0.00 | 0.00 | 0.00 | 49 | 1018.6 |
| 20260502033905 | 45 | 162 | 0.0 | 0.0 | 0.00 | 0.00 | 0.00 | 50 | 1018.3 |
| 20260502033403 | 45 | 172 | 0.0 | 0.0 | 0.00 | 0.00 | 0.00 | 50 | 1018.3 |
| 20260502032859 | 45 | 162 | 0.0 | 0.0 | 0.00 | 0.00 | 0.00 | 51 | 1018.4 |
| 20260502032355 | 45 | 162 | 0.0 | 0.0 | 0.00 | 0.00 | 0.00 | 51 | 1018.4 |
| 20260502031853 | 45 | 162 | 0.0 | 0.0 | 0.00 | 0.00 | 0.00 | 51 | 1018.3 |
| 20260502031351 | 45 | 162 | 0.0 | 0.0 | 0.00 | 0.00 | 0.00 | 50 | 1018.4 |
| 20260502030849 | 45 | 162 | 0.0 | 0.0 | 0.00 | 0.00 | 0.00 | 49 | 1018.5 |
| 20260502030347 | 46 | 162 | 0.0 | 0.0 | 0.00 | 0.00 | 0.00 | 48 | 1018.5 |
| 20260502025844 | 46 | 162 | 0.0 | 0.0 | 0.00 | 0.00 | 0.00 | 47 | 1018.4 |
| 20260502025342 | 46 | 162 | 0.0 | 0.0 | 0.00 | 0.00 | 0.00 | 46 | 1018.3 |
| 20260502024839 | 46 | 162 | 0.0 | 0.0 | 0.00 | 0.00 | 0.00 | 46 | 1018.7 |
| 20260502024337 | 46 | 163 | 0.0 | 0.0 | 0.00 | 0.00 | 0.00 | 47 | 1018.4 |
| 20260502023835 | 46 | 167 | 0.0 | 0.0 | 0.00 | 0.00 | 0.00 | 47 | 1018.4 |
| 20260502023332 | 46 | 163 | 0.0 | 0.0 | 0.00 | 0.00 | 0.00 | 46 | 1018.5 |
| 20260502022830 | 46 | 158 | 0.0 | 0.0 | 0.00 | 0.00 | 0.00 | 48 | 1018.5 |
| 20260502022326 | 46 | 161 | 0.0 | 0.0 | 0.00 | 0.00 | 0.00 | 51 | 1018.4 |
| 20260502021823 | 46 | 161 | 0.0 | 0.0 | 0.00 | 0.00 | 0.00 | 49 | 1018.5 |
| 20260502021320 | 46 | 161 | 0.0 | 0.0 | 0.00 | 0.00 | 0.00 | 48 | 1018.5 |
| 20260502020817 | 47 | 161 | 0.0 | 0.0 | 0.00 | 0.00 | 0.00 | 47 | 1018.3 |
| 20260502020315 | 47 | 162 | 0.0 | 0.0 | 0.00 | 0.00 | 0.00 | 45 | 1018.3 |
| 20260502015812 | 48 | 162 | 0.0 | 0.0 | 0.00 | 0.00 | 0.00 | 43 | 1018.2 |
| 20260502015308 | 48 | 162 | 0.0 | 0.0 | 0.00 | 0.00 | 0.00 | 42 | 1018.2 |
| 20260502014806 | 48 | 162 | 0.0 | 0.0 | 0.00 | 0.00 | 0.00 | 41 | 1018.2 |
| 20260502014303 | 49 | 161 | 0.0 | 0.0 | 0.00 | 0.00 | 0.00 | 40 | 1017.8 |
| 20260502013759 | 49 | 161 | 0.0 | 0.0 | 0.00 | 0.00 | 0.00 | 40 | 1018.0 |
| 20260502013255 | 50 | 162 | 0.0 | 0.0 | 0.00 | 0.00 | 0.00 | 39 | 1017.9 |
| 20260502012751 | 50 | 237 | 0.0 | 0.9 | 0.00 | 0.00 | 0.00 | 37 | 1018.1 |
| 20260502012249 | 51 | 302 | 0.9 | 0.9 | 0.00 | 0.00 | 0.00 | 37 | 1017.7 |
| 20260502011746 | 51 | 153 | 0.0 | 0.0 | 0.00 | 0.00 | 0.00 | 36 | 1018.0 |
| 20260502011242 | 51 | 204 | 0.0 | 0.9 | 0.00 | 0.00 | 0.00 | 36 | 1017.8 |
| 20260502010740 | 51 | 8 | 0.0 | 0.9 | 0.00 | 0.00 | 0.00 | 35 | 1017.8 |
| 20260502010236 | 51 | 314 | 0.9 | 1.7 | 0.00 | 0.00 | 0.00 | 35 | 1017.9 |
| 20260502005733 | 52 | 304 | 2.6 | 2.6 | 0.00 | 0.00 | 0.00 | 35 | 1017.7 |
| 20260502005231 | 52 | 279 | 0.9 | 1.7 | 0.00 | 0.00 | 0.00 | 35 | 1017.8 |
| 20260502004728 | 52 | 316 | 0.9 | 0.9 | 0.00 | 0.00 | 0.00 | 34 | 1017.9 |
| 20260502004224 | 52 | 297 | 0.0 | 0.9 | 0.00 | 0.00 | 0.00 | 34 | 1017.8 |
| 20260502003722 | 52 | 215 | 0.0 | 0.0 | 0.00 | 0.00 | 0.00 | 33 | 1017.9 |
| 20260502003219 | 53 | 341 | 0.9 | 0.9 | 0.00 | 0.00 | 0.00 | 34 | 1017.7 |
| 20260502002714 | 53 | 350 | 2.6 | 4.3 | 0.00 | 0.00 | 0.00 | 33 | 1017.9 |
| 20260502002213 | 53 | 335 | 2.6 | 2.6 | 0.00 | 0.00 | 0.00 | 34 | 1018.0 |
| 20260502001709 | 52 | 308 | 3.5 | 4.3 | 0.00 | 0.00 | 0.00 | 34 | 1017.8 |
| 20260502001208 | 53 | 285 | 1.7 | 2.6 | 0.00 | 0.00 | 0.00 | 33 | 1017.7 |
| 20260502000704 | 54 | 323 | 2.6 | 5.2 | 0.00 | 0.00 | 0.00 | 32 | 1017.8 |
| 20260502000204 | 54 | 345 | 0.9 | 0.9 | 0.00 | 0.00 | 0.00 | 33 | 1017.6 |
| 20260501235658 | 54 | 304 | 2.6 | 4.3 | 0.00 | 0.00 | 0.00 | 32 | 1017.8 |
| 20260501235154 | 54 | 330 | 0.9 | 1.7 | 0.00 | 0.00 | 0.00 | 32 | 1017.8 |
| 20260501234650 | 54 | 223 | 0.9 | 1.7 | 0.00 | 0.00 | 0.00 | 33 | 1017.7 |
| 20260501234147 | 54 | 296 | 2.6 | 4.3 | 0.00 | 0.00 | 0.00 | 34 | 1017.7 |
| 20260501233645 | 54 | 78 | 1.7 | 2.6 | 0.00 | 0.00 | 0.00 | 33 | 1017.7 |
| 20260501233142 | 54 | 216 | 1.7 | 1.7 | 0.00 | 0.00 | 0.00 | 33 | 1017.8 |
| 20260501232638 | 54 | 321 | 3.5 | 4.3 | 0.00 | 0.00 | 0.00 | 33 | 1017.7 |
| 20260501232136 | 55 | 334 | 2.6 | 2.6 | 0.00 | 0.00 | 0.00 | 31 | 1017.8 |
| 20260501231633 | 53 | 17 | 0.9 | 1.7 | 0.00 | 0.00 | 0.00 | 33 | 1017.7 |
| 20260501231131 | 52 | 291 | 2.6 | 2.6 | 0.00 | 0.00 | 0.00 | 34 | 1018.0 |
| 20260501230630 | 52 | 126 | 0.0 | 0.0 | 0.00 | 0.00 | 0.00 | 33 | 1017.8 |
| 20260501230127 | 52 | 6 | 1.7 | 2.6 | 0.00 | 0.00 | 0.00 | 34 | 1017.6 |
| 20260501225625 | 53 | 9 | 2.6 | 5.2 | 0.00 | 0.00 | 0.00 | 34 | 1017.7 |
| 20260501225121 | 54 | 289 | 2.6 | 4.3 | 0.00 | 0.00 | 0.00 | 32 | 1017.7 |
| 20260501224618 | 55 | 306 | 4.3 | 7.0 | 0.00 | 0.00 | 0.00 | 31 | 1017.8 |
| 20260501224115 | 54 | 284 | 0.9 | 1.7 | 0.00 | 0.00 | 0.00 | 34 | 1017.7 |